sensor_id;sensor_type;location;lat;lon;timestamp;P1;durP1;ratioP1;P2;durP2;ratioP2
56567;SDS011;42456;49.956;20.004;2023-04-26T00:01:57;8.40;;;4.30;;
56567;SDS011;42456;49.956;20.004;2023-04-26T00:04:23;10.10;;;4.60;;
56567;SDS011;42456;49.956;20.004;2023-04-26T00:06:51;11.20;;;4.30;;
56567;SDS011;42456;49.956;20.004;2023-04-26T00:09:17;8.60;;;4.40;;
56567;SDS011;42456;49.956;20.004;2023-04-26T00:11:44;11.10;;;4.70;;
56567;SDS011;42456;49.956;20.004;2023-04-26T00:14:11;13.50;;;4.50;;
56567;SDS011;42456;49.956;20.004;2023-04-26T00:16:38;12.30;;;5.10;;
56567;SDS011;42456;49.956;20.004;2023-04-26T00:19:05;8.10;;;4.00;;
56567;SDS011;42456;49.956;20.004;2023-04-26T00:21:32;9.10;;;4.10;;
56567;SDS011;42456;49.956;20.004;2023-04-26T00:23:59;11.10;;;4.50;;
56567;SDS011;42456;49.956;20.004;2023-04-26T00:26:25;9.90;;;4.20;;
56567;SDS011;42456;49.956;20.004;2023-04-26T00:28:52;15.20;;;5.30;;
56567;SDS011;42456;49.956;20.004;2023-04-26T00:31:19;11.40;;;4.60;;
56567;SDS011;42456;49.956;20.004;2023-04-26T00:33:46;15.90;;;5.40;;
56567;SDS011;42456;49.956;20.004;2023-04-26T00:36:13;12.10;;;4.50;;
56567;SDS011;42456;49.956;20.004;2023-04-26T00:38:44;11.80;;;4.60;;
56567;SDS011;42456;49.956;20.004;2023-04-26T00:41:12;12.30;;;4.60;;
56567;SDS011;42456;49.956;20.004;2023-04-26T00:43:39;12.20;;;4.50;;
56567;SDS011;42456;49.956;20.004;2023-04-26T00:46:07;11.80;;;4.40;;
56567;SDS011;42456;49.956;20.004;2023-04-26T00:48:35;10.50;;;4.10;;
56567;SDS011;42456;49.956;20.004;2023-04-26T00:51:03;8.20;;;3.40;;
56567;SDS011;42456;49.956;20.004;2023-04-26T00:53:31;12.50;;;3.90;;
56567;SDS011;42456;49.956;20.004;2023-04-26T00:55:59;10.20;;;3.80;;
56567;SDS011;42456;49.956;20.004;2023-04-26T00:58:27;9.10;;;3.40;;
56567;SDS011;42456;49.956;20.004;2023-04-26T01:00:54;12.50;;;3.70;;
56567;SDS011;42456;49.956;20.004;2023-04-26T01:03:22;8.70;;;3.60;;
56567;SDS011;42456;49.956;20.004;2023-04-26T01:05:49;7.40;;;3.80;;
56567;SDS011;42456;49.956;20.004;2023-04-26T01:08:16;10.30;;;4.90;;
56567;SDS011;42456;49.956;20.004;2023-04-26T01:10:47;11.70;;;3.90;;
56567;SDS011;42456;49.956;20.004;2023-04-26T01:13:14;12.20;;;3.70;;
56567;SDS011;42456;49.956;20.004;2023-04-26T01:15:45;11.00;;;3.90;;
56567;SDS011;42456;49.956;20.004;2023-04-26T01:18:12;13.70;;;4.10;;
56567;SDS011;42456;49.956;20.004;2023-04-26T01:20:40;9.70;;;3.50;;
56567;SDS011;42456;49.956;20.004;2023-04-26T01:23:08;10.50;;;3.90;;
56567;SDS011;42456;49.956;20.004;2023-04-26T01:25:37;8.20;;;3.70;;
56567;SDS011;42456;49.956;20.004;2023-04-26T01:28:04;9.90;;;3.70;;
56567;SDS011;42456;49.956;20.004;2023-04-26T01:30:30;9.60;;;3.70;;
56567;SDS011;42456;49.956;20.004;2023-04-26T01:32:57;10.10;;;3.90;;
56567;SDS011;42456;49.956;20.004;2023-04-26T01:35:24;8.80;;;3.60;;
56567;SDS011;42456;49.956;20.004;2023-04-26T01:37:51;10.10;;;3.60;;
56567;SDS011;42456;49.956;20.004;2023-04-26T01:40:18;10.20;;;3.90;;
56567;SDS011;42456;49.956;20.004;2023-04-26T01:42:45;7.30;;;3.60;;
56567;SDS011;42456;49.956;20.004;2023-04-26T01:45:12;12.10;;;4.70;;
56567;SDS011;42456;49.956;20.004;2023-04-26T01:47:39;10.70;;;3.90;;
56567;SDS011;42456;49.956;20.004;2023-04-26T01:50:06;10.20;;;3.40;;
56567;SDS011;42456;49.956;20.004;2023-04-26T01:52:33;9.40;;;3.80;;
56567;SDS011;42456;49.956;20.004;2023-04-26T01:55:00;9.60;;;3.50;;
56567;SDS011;42456;49.956;20.004;2023-04-26T01:57:27;10.80;;;3.90;;
56567;SDS011;42456;49.956;20.004;2023-04-26T01:59:54;10.00;;;3.30;;
56567;SDS011;42456;49.956;20.004;2023-04-26T02:02:22;9.80;;;3.10;;
56567;SDS011;42456;49.956;20.004;2023-04-26T02:04:49;7.00;;;3.20;;
56567;SDS011;42456;49.956;20.004;2023-04-26T02:07:16;8.30;;;3.40;;
56567;SDS011;42456;49.956;20.004;2023-04-26T02:09:43;7.70;;;3.10;;
56567;SDS011;42456;49.956;20.004;2023-04-26T02:12:11;7.40;;;2.90;;
56567;SDS011;42456;49.956;20.004;2023-04-26T02:14:38;11.40;;;3.80;;
56567;SDS011;42456;49.956;20.004;2023-04-26T02:17:05;8.90;;;3.20;;
56567;SDS011;42456;49.956;20.004;2023-04-26T02:19:34;10.40;;;3.60;;
56567;SDS011;42456;49.956;20.004;2023-04-26T02:22:03;14.90;;;3.70;;
56567;SDS011;42456;49.956;20.004;2023-04-26T02:24:31;11.50;;;3.60;;
56567;SDS011;42456;49.956;20.004;2023-04-26T02:26:58;8.60;;;3.20;;
56567;SDS011;42456;49.956;20.004;2023-04-26T02:29:29;11.00;;;3.80;;
56567;SDS011;42456;49.956;20.004;2023-04-26T02:32:09;10.70;;;4.30;;
56567;SDS011;42456;49.956;20.004;2023-04-26T02:34:36;8.30;;;3.40;;
56567;SDS011;42456;49.956;20.004;2023-04-26T02:37:03;10.30;;;3.60;;
56567;SDS011;42456;49.956;20.004;2023-04-26T02:39:30;11.10;;;3.70;;
56567;SDS011;42456;49.956;20.004;2023-04-26T02:41:57;11.30;;;3.60;;
56567;SDS011;42456;49.956;20.004;2023-04-26T02:44:27;12.00;;;3.90;;
56567;SDS011;42456;49.956;20.004;2023-04-26T02:46:55;10.20;;;4.10;;
56567;SDS011;42456;49.956;20.004;2023-04-26T02:49:22;12.90;;;4.30;;
56567;SDS011;42456;49.956;20.004;2023-04-26T02:51:49;10.10;;;4.00;;
56567;SDS011;42456;49.956;20.004;2023-04-26T02:54:16;8.00;;;3.50;;
56567;SDS011;42456;49.956;20.004;2023-04-26T02:56:43;9.90;;;3.70;;
56567;SDS011;42456;49.956;20.004;2023-04-26T02:59:09;13.50;;;3.60;;
56567;SDS011;42456;49.956;20.004;2023-04-26T03:01:36;15.00;;;4.00;;
56567;SDS011;42456;49.956;20.004;2023-04-26T03:04:04;9.40;;;3.60;;
56567;SDS011;42456;49.956;20.004;2023-04-26T03:06:31;11.60;;;3.70;;
56567;SDS011;42456;49.956;20.004;2023-04-26T03:08:58;7.70;;;3.20;;
56567;SDS011;42456;49.956;20.004;2023-04-26T03:11:25;12.50;;;3.90;;
56567;SDS011;42456;49.956;20.004;2023-04-26T03:13:52;12.90;;;4.10;;
56567;SDS011;42456;49.956;20.004;2023-04-26T03:16:19;11.30;;;3.60;;
56567;SDS011;42456;49.956;20.004;2023-04-26T03:21:16;8.80;;;3.50;;
56567;SDS011;42456;49.956;20.004;2023-04-26T03:23:43;12.10;;;4.40;;
56567;SDS011;42456;49.956;20.004;2023-04-26T03:26:10;8.20;;;3.50;;
56567;SDS011;42456;49.956;20.004;2023-04-26T03:28:37;11.80;;;3.60;;
56567;SDS011;42456;49.956;20.004;2023-04-26T03:31:03;12.50;;;4.90;;
56567;SDS011;42456;49.956;20.004;2023-04-26T03:33:30;11.10;;;4.20;;
56567;SDS011;42456;49.956;20.004;2023-04-26T03:35:57;8.50;;;3.80;;
56567;SDS011;42456;49.956;20.004;2023-04-26T03:38:24;12.50;;;4.20;;
56567;SDS011;42456;49.956;20.004;2023-04-26T03:40:51;11.20;;;3.90;;
56567;SDS011;42456;49.956;20.004;2023-04-26T03:43:18;15.50;;;4.80;;
56567;SDS011;42456;49.956;20.004;2023-04-26T03:45:50;13.70;;;4.60;;
56567;SDS011;42456;49.956;20.004;2023-04-26T03:48:32;7.60;;;3.80;;
56567;SDS011;42456;49.956;20.004;2023-04-26T03:50:59;13.80;;;4.40;;
56567;SDS011;42456;49.956;20.004;2023-04-26T03:53:26;13.20;;;4.20;;
56567;SDS011;42456;49.956;20.004;2023-04-26T03:55:52;8.90;;;4.10;;
56567;SDS011;42456;49.956;20.004;2023-04-26T03:58:19;13.20;;;4.70;;
56567;SDS011;42456;49.956;20.004;2023-04-26T04:00:46;11.80;;;4.20;;
56567;SDS011;42456;49.956;20.004;2023-04-26T04:03:13;13.10;;;4.50;;
56567;SDS011;42456;49.956;20.004;2023-04-26T04:05:40;11.30;;;4.90;;
56567;SDS011;42456;49.956;20.004;2023-04-26T04:08:07;7.20;;;4.00;;
56567;SDS011;42456;49.956;20.004;2023-04-26T04:10:35;12.60;;;4.40;;
56567;SDS011;42456;49.956;20.004;2023-04-26T04:13:03;13.80;;;4.30;;
56567;SDS011;42456;49.956;20.004;2023-04-26T04:15:30;16.20;;;4.50;;
56567;SDS011;42456;49.956;20.004;2023-04-26T04:17:57;10.70;;;4.00;;
56567;SDS011;42456;49.956;20.004;2023-04-26T04:20:23;13.70;;;4.00;;
56567;SDS011;42456;49.956;20.004;2023-04-26T04:22:51;13.90;;;4.40;;
56567;SDS011;42456;49.956;20.004;2023-04-26T04:25:18;10.40;;;4.70;;
56567;SDS011;42456;49.956;20.004;2023-04-26T04:27:47;13.90;;;4.70;;
56567;SDS011;42456;49.956;20.004;2023-04-26T04:30:14;14.40;;;5.00;;
56567;SDS011;42456;49.956;20.004;2023-04-26T04:32:41;13.40;;;4.00;;
56567;SDS011;42456;49.956;20.004;2023-04-26T04:35:12;10.40;;;4.00;;
56567;SDS011;42456;49.956;20.004;2023-04-26T04:37:42;12.60;;;4.10;;
56567;SDS011;42456;49.956;20.004;2023-04-26T04:40:09;10.60;;;4.40;;
56567;SDS011;42456;49.956;20.004;2023-04-26T04:42:37;10.30;;;4.50;;
56567;SDS011;42456;49.956;20.004;2023-04-26T04:45:04;10.00;;;4.70;;
56567;SDS011;42456;49.956;20.004;2023-04-26T04:47:31;13.80;;;4.70;;
56567;SDS011;42456;49.956;20.004;2023-04-26T04:49:59;11.80;;;4.90;;
56567;SDS011;42456;49.956;20.004;2023-04-26T04:52:26;11.60;;;4.10;;
56567;SDS011;42456;49.956;20.004;2023-04-26T04:54:52;15.60;;;4.90;;
56567;SDS011;42456;49.956;20.004;2023-04-26T04:57:19;12.20;;;4.80;;
56567;SDS011;42456;49.956;20.004;2023-04-26T04:59:46;12.30;;;4.70;;
56567;SDS011;42456;49.956;20.004;2023-04-26T05:02:14;13.30;;;4.50;;
56567;SDS011;42456;49.956;20.004;2023-04-26T05:04:41;13.60;;;5.00;;
56567;SDS011;42456;49.956;20.004;2023-04-26T05:07:08;13.60;;;4.50;;
56567;SDS011;42456;49.956;20.004;2023-04-26T05:09:35;14.60;;;5.10;;
56567;SDS011;42456;49.956;20.004;2023-04-26T05:12:02;11.20;;;4.30;;
56567;SDS011;42456;49.956;20.004;2023-04-26T05:14:29;13.90;;;4.30;;
56567;SDS011;42456;49.956;20.004;2023-04-26T05:16:56;13.30;;;4.30;;
56567;SDS011;42456;49.956;20.004;2023-04-26T05:19:23;12.20;;;4.60;;
56567;SDS011;42456;49.956;20.004;2023-04-26T05:21:50;15.30;;;5.00;;
56567;SDS011;42456;49.956;20.004;2023-04-26T05:24:18;12.10;;;5.10;;
56567;SDS011;42456;49.956;20.004;2023-04-26T05:26:44;12.00;;;5.00;;
56567;SDS011;42456;49.956;20.004;2023-04-26T05:29:11;13.20;;;4.80;;
56567;SDS011;42456;49.956;20.004;2023-04-26T05:31:39;12.90;;;5.00;;
56567;SDS011;42456;49.956;20.004;2023-04-26T05:34:06;12.80;;;4.70;;
56567;SDS011;42456;49.956;20.004;2023-04-26T05:36:33;14.00;;;4.80;;
56567;SDS011;42456;49.956;20.004;2023-04-26T05:38:59;12.50;;;5.30;;
56567;SDS011;42456;49.956;20.004;2023-04-26T05:41:26;13.40;;;4.80;;
56567;SDS011;42456;49.956;20.004;2023-04-26T05:43:53;13.70;;;4.90;;
56567;SDS011;42456;49.956;20.004;2023-04-26T05:46:20;12.40;;;5.00;;
56567;SDS011;42456;49.956;20.004;2023-04-26T05:48:47;13.00;;;4.50;;
56567;SDS011;42456;49.956;20.004;2023-04-26T05:51:14;8.50;;;4.60;;
56567;SDS011;42456;49.956;20.004;2023-04-26T05:53:41;15.50;;;5.20;;
56567;SDS011;42456;49.956;20.004;2023-04-26T05:56:08;15.90;;;5.50;;
56567;SDS011;42456;49.956;20.004;2023-04-26T05:58:34;13.50;;;4.90;;
56567;SDS011;42456;49.956;20.004;2023-04-26T06:01:02;12.00;;;4.70;;
56567;SDS011;42456;49.956;20.004;2023-04-26T06:03:28;15.60;;;4.40;;
56567;SDS011;42456;49.956;20.004;2023-04-26T06:05:57;12.10;;;4.60;;
56567;SDS011;42456;49.956;20.004;2023-04-26T06:08:24;13.10;;;4.20;;
56567;SDS011;42456;49.956;20.004;2023-04-26T06:10:53;10.00;;;4.60;;
56567;SDS011;42456;49.956;20.004;2023-04-26T06:13:20;14.50;;;4.90;;
56567;SDS011;42456;49.956;20.004;2023-04-26T06:15:47;11.70;;;4.40;;
56567;SDS011;42456;49.956;20.004;2023-04-26T06:18:14;11.70;;;4.80;;
56567;SDS011;42456;49.956;20.004;2023-04-26T06:20:41;11.40;;;4.80;;
56567;SDS011;42456;49.956;20.004;2023-04-26T06:23:08;17.10;;;4.10;;
56567;SDS011;42456;49.956;20.004;2023-04-26T06:25:34;13.90;;;4.00;;
56567;SDS011;42456;49.956;20.004;2023-04-26T06:28:02;14.60;;;4.10;;
56567;SDS011;42456;49.956;20.004;2023-04-26T06:30:29;13.40;;;4.00;;
56567;SDS011;42456;49.956;20.004;2023-04-26T06:32:56;10.10;;;3.90;;
56567;SDS011;42456;49.956;20.004;2023-04-26T06:35:26;10.80;;;4.10;;
56567;SDS011;42456;49.956;20.004;2023-04-26T06:37:53;12.20;;;3.70;;
56567;SDS011;42456;49.956;20.004;2023-04-26T06:40:19;9.40;;;3.60;;
56567;SDS011;42456;49.956;20.004;2023-04-26T06:42:47;8.90;;;3.50;;
56567;SDS011;42456;49.956;20.004;2023-04-26T06:45:14;10.50;;;3.60;;
56567;SDS011;42456;49.956;20.004;2023-04-26T06:47:42;6.70;;;2.90;;
56567;SDS011;42456;49.956;20.004;2023-04-26T06:50:09;8.90;;;3.30;;
56567;SDS011;42456;49.956;20.004;2023-04-26T06:52:36;8.30;;;3.10;;
56567;SDS011;42456;49.956;20.004;2023-04-26T06:55:04;8.80;;;3.50;;
56567;SDS011;42456;49.956;20.004;2023-04-26T06:57:32;8.10;;;2.60;;
56567;SDS011;42456;49.956;20.004;2023-04-26T06:59:59;10.70;;;3.20;;
56567;SDS011;42456;49.956;20.004;2023-04-26T07:02:26;10.20;;;3.30;;
56567;SDS011;42456;49.956;20.004;2023-04-26T07:04:53;13.70;;;3.40;;
56567;SDS011;42456;49.956;20.004;2023-04-26T07:07:20;8.90;;;2.80;;
56567;SDS011;42456;49.956;20.004;2023-04-26T07:09:47;9.00;;;2.90;;
56567;SDS011;42456;49.956;20.004;2023-04-26T07:12:14;8.00;;;3.10;;
56567;SDS011;42456;49.956;20.004;2023-04-26T07:14:41;8.00;;;2.80;;
56567;SDS011;42456;49.956;20.004;2023-04-26T07:17:09;11.40;;;3.90;;
56567;SDS011;42456;49.956;20.004;2023-04-26T07:19:36;8.10;;;3.00;;
56567;SDS011;42456;49.956;20.004;2023-04-26T07:22:03;12.40;;;3.10;;
56567;SDS011;42456;49.956;20.004;2023-04-26T07:24:30;9.10;;;2.80;;
56567;SDS011;42456;49.956;20.004;2023-04-26T07:26:57;9.90;;;2.80;;
56567;SDS011;42456;49.956;20.004;2023-04-26T07:29:24;9.90;;;2.80;;
56567;SDS011;42456;49.956;20.004;2023-04-26T07:31:51;8.10;;;2.70;;
56567;SDS011;42456;49.956;20.004;2023-04-26T07:34:18;6.00;;;2.70;;
56567;SDS011;42456;49.956;20.004;2023-04-26T07:36:45;7.60;;;2.70;;
56567;SDS011;42456;49.956;20.004;2023-04-26T07:39:13;7.90;;;2.50;;
56567;SDS011;42456;49.956;20.004;2023-04-26T07:41:40;8.10;;;2.60;;
56567;SDS011;42456;49.956;20.004;2023-04-26T07:44:09;9.20;;;3.10;;
56567;SDS011;42456;49.956;20.004;2023-04-26T07:46:36;5.70;;;2.60;;
56567;SDS011;42456;49.956;20.004;2023-04-26T07:49:03;9.20;;;3.30;;
56567;SDS011;42456;49.956;20.004;2023-04-26T07:51:30;7.80;;;2.70;;
56567;SDS011;42456;49.956;20.004;2023-04-26T07:53:57;6.50;;;2.30;;
56567;SDS011;42456;49.956;20.004;2023-04-26T07:56:24;7.60;;;2.40;;
56567;SDS011;42456;49.956;20.004;2023-04-26T07:58:51;8.80;;;3.00;;
56567;SDS011;42456;49.956;20.004;2023-04-26T08:01:18;7.90;;;2.70;;
56567;SDS011;42456;49.956;20.004;2023-04-26T08:03:45;13.30;;;2.70;;
56567;SDS011;42456;49.956;20.004;2023-04-26T08:06:14;8.00;;;2.70;;
56567;SDS011;42456;49.956;20.004;2023-04-26T08:08:42;7.30;;;2.70;;
56567;SDS011;42456;49.956;20.004;2023-04-26T08:11:16;7.00;;;2.60;;
56567;SDS011;42456;49.956;20.004;2023-04-26T08:13:43;10.70;;;3.00;;
56567;SDS011;42456;49.956;20.004;2023-04-26T08:16:10;7.00;;;2.60;;
56567;SDS011;42456;49.956;20.004;2023-04-26T08:18:38;7.30;;;2.70;;
56567;SDS011;42456;49.956;20.004;2023-04-26T08:21:05;7.40;;;2.40;;
56567;SDS011;42456;49.956;20.004;2023-04-26T08:23:33;10.40;;;2.80;;
56567;SDS011;42456;49.956;20.004;2023-04-26T08:26:03;7.30;;;2.60;;
56567;SDS011;42456;49.956;20.004;2023-04-26T08:28:30;9.20;;;2.70;;
56567;SDS011;42456;49.956;20.004;2023-04-26T08:30:57;11.70;;;2.80;;
56567;SDS011;42456;49.956;20.004;2023-04-26T08:33:24;7.60;;;2.50;;
56567;SDS011;42456;49.956;20.004;2023-04-26T08:35:51;5.80;;;2.40;;
56567;SDS011;42456;49.956;20.004;2023-04-26T08:38:18;10.50;;;2.60;;
56567;SDS011;42456;49.956;20.004;2023-04-26T08:40:48;6.60;;;2.20;;
56567;SDS011;42456;49.956;20.004;2023-04-26T08:43:16;10.20;;;2.00;;
56567;SDS011;42456;49.956;20.004;2023-04-26T08:45:46;8.10;;;2.60;;
56567;SDS011;42456;49.956;20.004;2023-04-26T08:48:14;8.60;;;2.50;;
56567;SDS011;42456;49.956;20.004;2023-04-26T08:53:15;5.40;;;2.00;;
56567;SDS011;42456;49.956;20.004;2023-04-26T08:55:48;5.60;;;2.50;;
56567;SDS011;42456;49.956;20.004;2023-04-26T08:58:16;7.20;;;2.30;;
56567;SDS011;42456;49.956;20.004;2023-04-26T09:00:44;6.80;;;2.40;;
56567;SDS011;42456;49.956;20.004;2023-04-26T09:03:11;9.30;;;2.90;;
56567;SDS011;42456;49.956;20.004;2023-04-26T09:05:39;5.80;;;2.40;;
56567;SDS011;42456;49.956;20.004;2023-04-26T09:08:19;7.90;;;2.50;;
56567;SDS011;42456;49.956;20.004;2023-04-26T09:10:47;7.40;;;2.40;;
56567;SDS011;42456;49.956;20.004;2023-04-26T09:13:14;8.70;;;2.20;;
56567;SDS011;42456;49.956;20.004;2023-04-26T09:15:41;6.60;;;2.20;;
56567;SDS011;42456;49.956;20.004;2023-04-26T09:18:15;7.70;;;2.40;;
56567;SDS011;42456;49.956;20.004;2023-04-26T09:20:44;4.60;;;2.20;;
56567;SDS011;42456;49.956;20.004;2023-04-26T09:23:11;4.90;;;2.20;;
56567;SDS011;42456;49.956;20.004;2023-04-26T09:25:39;4.50;;;2.40;;
56567;SDS011;42456;49.956;20.004;2023-04-26T09:28:39;5.70;;;2.40;;
56567;SDS011;42456;49.956;20.004;2023-04-26T09:30:59;4.80;;;2.10;;
56567;SDS011;42456;49.956;20.004;2023-04-26T09:33:26;9.90;;;2.50;;
56567;SDS011;42456;49.956;20.004;2023-04-26T09:35:53;9.10;;;2.80;;
56567;SDS011;42456;49.956;20.004;2023-04-26T09:38:20;6.20;;;2.70;;
56567;SDS011;42456;49.956;20.004;2023-04-26T09:40:48;6.90;;;2.80;;
56567;SDS011;42456;49.956;20.004;2023-04-26T09:43:17;6.50;;;2.80;;
56567;SDS011;42456;49.956;20.004;2023-04-26T09:46:06;9.50;;;3.20;;
56567;SDS011;42456;49.956;20.004;2023-04-26T09:48:33;8.10;;;3.00;;
56567;SDS011;42456;49.956;20.004;2023-04-26T09:56:17;6.90;;;2.90;;
56567;SDS011;42456;49.956;20.004;2023-04-26T10:01:15;7.20;;;2.90;;
56567;SDS011;42456;49.956;20.004;2023-04-26T10:03:45;5.40;;;2.60;;
56567;SDS011;42456;49.956;20.004;2023-04-26T10:06:13;5.70;;;2.50;;
56567;SDS011;42456;49.956;20.004;2023-04-26T10:08:39;5.00;;;2.60;;
56567;SDS011;42456;49.956;20.004;2023-04-26T10:11:06;7.50;;;2.90;;
56567;SDS011;42456;49.956;20.004;2023-04-26T10:13:36;5.10;;;2.70;;
56567;SDS011;42456;49.956;20.004;2023-04-26T10:16:03;6.80;;;3.40;;
56567;SDS011;42456;49.956;20.004;2023-04-26T10:18:32;5.10;;;2.80;;
56567;SDS011;42456;49.956;20.004;2023-04-26T10:21:01;4.50;;;2.50;;
56567;SDS011;42456;49.956;20.004;2023-04-26T10:23:32;6.70;;;2.90;;
56567;SDS011;42456;49.956;20.004;2023-04-26T10:26:00;6.50;;;3.10;;
56567;SDS011;42456;49.956;20.004;2023-04-26T10:31:10;8.00;;;3.10;;
56567;SDS011;42456;49.956;20.004;2023-04-26T10:33:37;7.00;;;2.80;;
56567;SDS011;42456;49.956;20.004;2023-04-26T10:36:05;4.90;;;2.90;;
56567;SDS011;42456;49.956;20.004;2023-04-26T10:38:36;6.70;;;2.70;;
56567;SDS011;42456;49.956;20.004;2023-04-26T10:43:59;4.50;;;2.50;;
56567;SDS011;42456;49.956;20.004;2023-04-26T10:46:50;5.90;;;2.30;;
56567;SDS011;42456;49.956;20.004;2023-04-26T10:49:19;4.50;;;2.40;;
56567;SDS011;42456;49.956;20.004;2023-04-26T10:54:47;4.80;;;2.70;;
56567;SDS011;42456;49.956;20.004;2023-04-26T10:57:14;8.20;;;2.70;;
56567;SDS011;42456;49.956;20.004;2023-04-26T11:00:42;5.40;;;2.40;;
56567;SDS011;42456;49.956;20.004;2023-04-26T11:08:04;7.10;;;2.60;;
56567;SDS011;42456;49.956;20.004;2023-04-26T11:10:30;4.80;;;2.50;;
56567;SDS011;42456;49.956;20.004;2023-04-26T11:13:00;6.70;;;3.20;;
56567;SDS011;42456;49.956;20.004;2023-04-26T11:15:31;5.00;;;2.60;;
56567;SDS011;42456;49.956;20.004;2023-04-26T11:18:04;5.00;;;2.30;;
56567;SDS011;42456;49.956;20.004;2023-04-26T11:20:31;6.40;;;2.20;;
56567;SDS011;42456;49.956;20.004;2023-04-26T11:22:59;7.60;;;2.50;;
56567;SDS011;42456;49.956;20.004;2023-04-26T11:25:27;3.90;;;2.60;;
56567;SDS011;42456;49.956;20.004;2023-04-26T11:27:58;5.80;;;2.50;;
56567;SDS011;42456;49.956;20.004;2023-04-26T11:30:27;4.30;;;2.50;;
56567;SDS011;42456;49.956;20.004;2023-04-26T11:32:55;8.00;;;2.30;;
56567;SDS011;42456;49.956;20.004;2023-04-26T11:35:22;8.90;;;2.20;;
56567;SDS011;42456;49.956;20.004;2023-04-26T11:37:50;4.00;;;2.10;;
56567;SDS011;42456;49.956;20.004;2023-04-26T11:40:17;5.40;;;2.30;;
56567;SDS011;42456;49.956;20.004;2023-04-26T11:42:45;4.20;;;2.20;;
56567;SDS011;42456;49.956;20.004;2023-04-26T11:45:14;3.80;;;2.10;;
56567;SDS011;42456;49.956;20.004;2023-04-26T11:47:42;6.00;;;2.40;;
56567;SDS011;42456;49.956;20.004;2023-04-26T11:50:10;6.50;;;2.10;;
56567;SDS011;42456;49.956;20.004;2023-04-26T11:52:54;5.40;;;2.80;;
56567;SDS011;42456;49.956;20.004;2023-04-26T11:55:23;4.60;;;2.30;;
56567;SDS011;42456;49.956;20.004;2023-04-26T11:57:53;4.80;;;2.40;;
56567;SDS011;42456;49.956;20.004;2023-04-26T12:00:19;4.20;;;2.30;;
56567;SDS011;42456;49.956;20.004;2023-04-26T12:02:47;7.60;;;2.60;;
56567;SDS011;42456;49.956;20.004;2023-04-26T12:05:25;6.50;;;2.00;;
56567;SDS011;42456;49.956;20.004;2023-04-26T12:07:54;7.00;;;2.20;;
56567;SDS011;42456;49.956;20.004;2023-04-26T12:10:23;3.70;;;2.20;;
56567;SDS011;42456;49.956;20.004;2023-04-26T12:12:54;6.10;;;1.80;;
56567;SDS011;42456;49.956;20.004;2023-04-26T12:15:23;7.10;;;2.80;;
56567;SDS011;42456;49.956;20.004;2023-04-26T12:17:52;6.90;;;2.80;;
56567;SDS011;42456;49.956;20.004;2023-04-26T12:20:27;6.60;;;2.30;;
56567;SDS011;42456;49.956;20.004;2023-04-26T12:23:06;3.90;;;2.10;;
56567;SDS011;42456;49.956;20.004;2023-04-26T12:25:35;6.70;;;2.70;;
56567;SDS011;42456;49.956;20.004;2023-04-26T12:28:05;5.00;;;2.30;;
56567;SDS011;42456;49.956;20.004;2023-04-26T12:30:38;5.20;;;2.10;;
56567;SDS011;42456;49.956;20.004;2023-04-26T12:33:06;7.20;;;2.30;;
56567;SDS011;42456;49.956;20.004;2023-04-26T12:35:42;7.40;;;2.80;;
56567;SDS011;42456;49.956;20.004;2023-04-26T12:38:09;6.10;;;2.50;;
56567;SDS011;42456;49.956;20.004;2023-04-26T12:40:38;3.90;;;2.10;;
56567;SDS011;42456;49.956;20.004;2023-04-26T12:43:05;9.50;;;2.70;;
56567;SDS011;42456;49.956;20.004;2023-04-26T12:45:32;5.40;;;2.40;;
56567;SDS011;42456;49.956;20.004;2023-04-26T12:48:00;6.80;;;2.70;;
56567;SDS011;42456;49.956;20.004;2023-04-26T12:50:27;7.00;;;2.40;;
56567;SDS011;42456;49.956;20.004;2023-04-26T12:52:54;3.60;;;1.80;;
56567;SDS011;42456;49.956;20.004;2023-04-26T12:55:21;3.80;;;1.90;;
56567;SDS011;42456;49.956;20.004;2023-04-26T12:57:49;3.90;;;2.10;;
56567;SDS011;42456;49.956;20.004;2023-04-26T13:00:16;4.80;;;2.20;;
56567;SDS011;42456;49.956;20.004;2023-04-26T13:02:43;6.80;;;2.40;;
56567;SDS011;42456;49.956;20.004;2023-04-26T13:05:12;4.00;;;2.00;;
56567;SDS011;42456;49.956;20.004;2023-04-26T13:07:40;3.70;;;1.90;;
56567;SDS011;42456;49.956;20.004;2023-04-26T13:10:09;4.70;;;2.30;;
56567;SDS011;42456;49.956;20.004;2023-04-26T13:15:06;5.50;;;2.20;;
56567;SDS011;42456;49.956;20.004;2023-04-26T13:17:34;6.60;;;2.70;;
56567;SDS011;42456;49.956;20.004;2023-04-26T13:20:03;4.60;;;2.40;;
56567;SDS011;42456;49.956;20.004;2023-04-26T13:22:32;4.50;;;2.10;;
56567;SDS011;42456;49.956;20.004;2023-04-26T13:24:59;9.60;;;3.00;;
56567;SDS011;42456;49.956;20.004;2023-04-26T13:27:26;5.30;;;2.10;;
56567;SDS011;42456;49.956;20.004;2023-04-26T13:29:56;3.80;;;2.00;;
56567;SDS011;42456;49.956;20.004;2023-04-26T13:32:23;7.20;;;2.60;;
56567;SDS011;42456;49.956;20.004;2023-04-26T13:34:51;2.50;;;1.80;;
56567;SDS011;42456;49.956;20.004;2023-04-26T13:37:18;4.60;;;1.90;;
56567;SDS011;42456;49.956;20.004;2023-04-26T13:39:47;6.30;;;2.40;;
56567;SDS011;42456;49.956;20.004;2023-04-26T13:42:14;6.90;;;3.90;;
56567;SDS011;42456;49.956;20.004;2023-04-26T13:44:42;7.00;;;3.70;;
56567;SDS011;42456;49.956;20.004;2023-04-26T13:47:09;5.90;;;3.00;;
56567;SDS011;42456;49.956;20.004;2023-04-26T13:49:37;9.80;;;2.40;;
56567;SDS011;42456;49.956;20.004;2023-04-26T13:54:33;6.30;;;2.30;;
56567;SDS011;42456;49.956;20.004;2023-04-26T13:57:02;8.00;;;3.30;;
56567;SDS011;42456;49.956;20.004;2023-04-26T13:59:29;5.50;;;2.20;;
56567;SDS011;42456;49.956;20.004;2023-04-26T14:01:57;8.70;;;2.40;;
56567;SDS011;42456;49.956;20.004;2023-04-26T14:04:25;7.00;;;2.90;;
56567;SDS011;42456;49.956;20.004;2023-04-26T14:06:52;4.90;;;2.60;;
56567;SDS011;42456;49.956;20.004;2023-04-26T14:09:19;7.30;;;3.40;;
56567;SDS011;42456;49.956;20.004;2023-04-26T14:11:46;6.40;;;3.30;;
56567;SDS011;42456;49.956;20.004;2023-04-26T14:14:32;4.50;;;2.20;;
56567;SDS011;42456;49.956;20.004;2023-04-26T14:16:58;3.40;;;2.00;;
56567;SDS011;42456;49.956;20.004;2023-04-26T14:19:25;6.10;;;2.00;;
56567;SDS011;42456;49.956;20.004;2023-04-26T14:21:52;6.80;;;2.50;;
56567;SDS011;42456;49.956;20.004;2023-04-26T14:24:20;2.90;;;2.20;;
56567;SDS011;42456;49.956;20.004;2023-04-26T14:26:47;5.30;;;2.10;;
56567;SDS011;42456;49.956;20.004;2023-04-26T14:29:13;8.50;;;3.60;;
56567;SDS011;42456;49.956;20.004;2023-04-26T14:31:40;6.60;;;2.60;;
56567;SDS011;42456;49.956;20.004;2023-04-26T14:34:07;4.00;;;2.40;;
56567;SDS011;42456;49.956;20.004;2023-04-26T14:36:34;5.90;;;2.50;;
56567;SDS011;42456;49.956;20.004;2023-04-26T14:39:02;5.50;;;2.10;;
56567;SDS011;42456;49.956;20.004;2023-04-26T14:41:29;10.20;;;3.70;;
56567;SDS011;42456;49.956;20.004;2023-04-26T14:43:56;8.20;;;3.40;;
56567;SDS011;42456;49.956;20.004;2023-04-26T14:46:23;4.80;;;2.80;;
56567;SDS011;42456;49.956;20.004;2023-04-26T14:48:50;7.20;;;2.90;;
56567;SDS011;42456;49.956;20.004;2023-04-26T14:51:17;9.30;;;2.80;;
56567;SDS011;42456;49.956;20.004;2023-04-26T14:53:43;7.00;;;2.70;;
56567;SDS011;42456;49.956;20.004;2023-04-26T14:56:11;7.00;;;2.90;;
56567;SDS011;42456;49.956;20.004;2023-04-26T14:58:38;3.40;;;2.60;;
56567;SDS011;42456;49.956;20.004;2023-04-26T15:01:05;4.50;;;2.40;;
56567;SDS011;42456;49.956;20.004;2023-04-26T15:03:33;2.40;;;1.90;;
56567;SDS011;42456;49.956;20.004;2023-04-26T15:06:00;3.20;;;2.30;;